sensor_id;sensor_type;location;lat;lon;timestamp;P1;P2;P0
72467;PMS3003;60626;43.582;1.470;2023-02-08T00:01:48;12.25;7.50;4.75
72467;PMS3003;60626;43.582;1.470;2023-02-08T00:04:15;11.25;7.00;5.00
72467;PMS3003;60626;43.582;1.470;2023-02-08T00:06:42;8.50;6.25;4.00
72467;PMS3003;60626;43.582;1.470;2023-02-08T00:09:08;7.25;5.50;4.50
72467;PMS3003;60626;43.582;1.470;2023-02-08T00:11:35;9.00;7.50;5.75
72467;PMS3003;60626;43.582;1.470;2023-02-08T00:14:02;15.50;6.50;4.75
72467;PMS3003;60626;43.582;1.470;2023-02-08T00:16:29;6.00;5.00;4.00
72467;PMS3003;60626;43.582;1.470;2023-02-08T00:18:56;15.00;6.00;4.50
72467;PMS3003;60626;43.582;1.470;2023-02-08T00:21:23;10.75;8.25;4.75
72467;PMS3003;60626;43.582;1.470;2023-02-08T00:23:49;7.25;6.00;5.00
72467;PMS3003;60626;43.582;1.470;2023-02-08T00:26:16;12.50;6.25;4.00
72467;PMS3003;60626;43.582;1.470;2023-02-08T00:28:44;7.00;7.00;5.00
72467;PMS3003;60626;43.582;1.470;2023-02-08T00:31:11;6.25;6.25;4.75
72467;PMS3003;60626;43.582;1.470;2023-02-08T00:33:38;11.00;7.25;5.00
72467;PMS3003;60626;43.582;1.470;2023-02-08T00:36:05;8.50;7.50;4.75
72467;PMS3003;60626;43.582;1.470;2023-02-08T00:38:34;11.25;7.00;5.75
72467;PMS3003;60626;43.582;1.470;2023-02-08T00:41:00;10.50;7.75;5.00
72467;PMS3003;60626;43.582;1.470;2023-02-08T00:43:27;7.25;7.25;5.00
72467;PMS3003;60626;43.582;1.470;2023-02-08T00:45:55;5.75;3.00;2.00
72467;PMS3003;60626;43.582;1.470;2023-02-08T00:48:23;9.50;7.75;6.00
72467;PMS3003;60626;43.582;1.470;2023-02-08T00:51:03;9.50;7.00;5.00
72467;PMS3003;60626;43.582;1.470;2023-02-08T00:53:36;10.75;5.25;4.00
72467;PMS3003;60626;43.582;1.470;2023-02-08T00:56:05;13.00;9.50;7.00
72467;PMS3003;60626;43.582;1.470;2023-02-08T00:58:33;11.00;6.50;5.00
72467;PMS3003;60626;43.582;1.470;2023-02-08T01:01:00;11.00;8.50;6.00
72467;PMS3003;60626;43.582;1.470;2023-02-08T01:03:31;14.00;7.00;5.00
72467;PMS3003;60626;43.582;1.470;2023-02-08T01:06:03;13.00;10.00;7.25
72467;PMS3003;60626;43.582;1.470;2023-02-08T01:08:31;5.50;4.00;3.00
72467;PMS3003;60626;43.582;1.470;2023-02-08T01:11:05;7.75;5.75;4.25
72467;PMS3003;60626;43.582;1.470;2023-02-08T01:13:36;11.25;6.00;4.50
72467;PMS3003;60626;43.582;1.470;2023-02-08T01:16:06;10.75;9.75;6.00
72467;PMS3003;60626;43.582;1.470;2023-02-08T01:18:38;8.25;6.75;4.50
72467;PMS3003;60626;43.582;1.470;2023-02-08T01:21:08;9.50;7.75;6.00
72467;PMS3003;60626;43.582;1.470;2023-02-08T01:23:37;6.00;6.00;6.00
72467;PMS3003;60626;43.582;1.470;2023-02-08T01:26:05;8.25;8.00;5.50
72467;PMS3003;60626;43.582;1.470;2023-02-08T01:28:33;8.50;8.25;6.00
72467;PMS3003;60626;43.582;1.470;2023-02-08T01:31:05;12.50;9.25;6.50
72467;PMS3003;60626;43.582;1.470;2023-02-08T01:33:33;12.75;7.00;5.00
72467;PMS3003;60626;43.582;1.470;2023-02-08T01:35:59;11.25;8.50;6.00
72467;PMS3003;60626;43.582;1.470;2023-02-08T01:38:26;10.25;9.00;6.50
72467;PMS3003;60626;43.582;1.470;2023-02-08T01:40:53;13.25;9.25;7.00
72467;PMS3003;60626;43.582;1.470;2023-02-08T01:43:27;14.75;11.50;6.50
72467;PMS3003;60626;43.582;1.470;2023-02-08T01:45:55;11.25;9.00;6.00
72467;PMS3003;60626;43.582;1.470;2023-02-08T01:48:24;12.25;10.75;6.00
72467;PMS3003;60626;43.582;1.470;2023-02-08T01:53:32;7.25;7.00;5.00
72467;PMS3003;60626;43.582;1.470;2023-02-08T01:56:04;7.75;7.50;5.75
72467;PMS3003;60626;43.582;1.470;2023-02-08T01:58:35;11.75;9.75;6.25
72467;PMS3003;60626;43.582;1.470;2023-02-08T02:01:07;12.50;8.00;6.00
72467;PMS3003;60626;43.582;1.470;2023-02-08T02:03:34;7.00;7.00;6.00
72467;PMS3003;60626;43.582;1.470;2023-02-08T02:06:09;10.50;8.50;6.00
72467;PMS3003;60626;43.582;1.470;2023-02-08T02:08:39;8.25;8.25;5.75
72467;PMS3003;60626;43.582;1.470;2023-02-08T02:11:29;11.75;9.00;6.25
72467;PMS3003;60626;43.582;1.470;2023-02-08T02:13:56;11.25;10.00;6.00
72467;PMS3003;60626;43.582;1.470;2023-02-08T02:16:23;12.00;10.00;5.75
72467;PMS3003;60626;43.582;1.470;2023-02-08T02:18:50;10.75;7.50;6.00
72467;PMS3003;60626;43.582;1.470;2023-02-08T02:27:17;9.00;9.00;6.25
72467;PMS3003;60626;43.582;1.470;2023-02-08T02:44:20;13.75;9.25;6.00
72467;PMS3003;60626;43.582;1.470;2023-02-08T02:46:57;11.00;11.00;8.25
72467;PMS3003;60626;43.582;1.470;2023-02-08T02:49:46;10.75;8.00;6.50
72467;PMS3003;60626;43.582;1.470;2023-02-08T02:52:18;12.75;11.00;7.00
72467;PMS3003;60626;43.582;1.470;2023-02-08T02:54:53;15.75;13.75;8.00
72467;PMS3003;60626;43.582;1.470;2023-02-08T02:57:27;9.75;9.75;7.25
72467;PMS3003;60626;43.582;1.470;2023-02-08T02:59:57;14.75;9.50;7.00
72467;PMS3003;60626;43.582;1.470;2023-02-08T03:02:26;9.75;8.25;6.75
72467;PMS3003;60626;43.582;1.470;2023-02-08T03:04:54;10.50;9.00;7.00
72467;PMS3003;60626;43.582;1.470;2023-02-08T03:08:24;11.25;7.00;5.50
72467;PMS3003;60626;43.582;1.470;2023-02-08T03:26:51;13.00;11.75;7.25
72467;PMS3003;60626;43.582;1.470;2023-02-08T03:32:15;13.00;11.75;7.75
72467;PMS3003;60626;43.582;1.470;2023-02-08T03:37:26;10.50;9.75;8.00
72467;PMS3003;60626;43.582;1.470;2023-02-08T03:40:00;12.00;8.00;6.75
72467;PMS3003;60626;43.582;1.470;2023-02-08T03:42:34;10.00;8.25;5.75
72467;PMS3003;60626;43.582;1.470;2023-02-08T03:45:38;12.00;9.25;7.00
72467;PMS3003;60626;43.582;1.470;2023-02-08T03:48:03;12.50;11.75;7.75
72467;PMS3003;60626;43.582;1.470;2023-02-08T03:50:35;7.00;7.00;5.25
72467;PMS3003;60626;43.582;1.470;2023-02-08T03:53:05;11.75;11.75;7.00
72467;PMS3003;60626;43.582;1.470;2023-02-08T03:55:34;10.25;10.25;7.00
72467;PMS3003;60626;43.582;1.470;2023-02-08T04:00:37;9.75;7.75;6.00
72467;PMS3003;60626;43.582;1.470;2023-02-08T04:03:10;14.00;12.50;8.25
72467;PMS3003;60626;43.582;1.470;2023-02-08T04:05:40;14.00;11.00;7.00
72467;PMS3003;60626;43.582;1.470;2023-02-08T04:08:06;12.75;11.00;8.00
72467;PMS3003;60626;43.582;1.470;2023-02-08T04:10:33;12.00;9.25;7.00
72467;PMS3003;60626;43.582;1.470;2023-02-08T04:13:00;10.25;8.00;7.00
72467;PMS3003;60626;43.582;1.470;2023-02-08T04:15:27;12.50;10.75;8.75
72467;PMS3003;60626;43.582;1.470;2023-02-08T04:17:53;11.25;9.50;7.00
72467;PMS3003;60626;43.582;1.470;2023-02-08T04:20:20;16.75;12.00;8.25
72467;PMS3003;60626;43.582;1.470;2023-02-08T04:22:47;12.00;12.00;8.50
72467;PMS3003;60626;43.582;1.470;2023-02-08T04:25:13;11.75;10.25;7.00
72467;PMS3003;60626;43.582;1.470;2023-02-08T04:27:40;14.00;10.50;7.00
72467;PMS3003;60626;43.582;1.470;2023-02-08T04:30:07;15.75;11.25;8.25
72467;PMS3003;60626;43.582;1.470;2023-02-08T04:32:34;16.00;12.75;8.00
72467;PMS3003;60626;43.582;1.470;2023-02-08T04:35:01;12.75;11.00;8.00
72467;PMS3003;60626;43.582;1.470;2023-02-08T04:37:27;12.75;11.75;9.00
72467;PMS3003;60626;43.582;1.470;2023-02-08T04:39:54;14.25;13.25;9.50
72467;PMS3003;60626;43.582;1.470;2023-02-08T04:42:21;11.75;11.75;8.25
72467;PMS3003;60626;43.582;1.470;2023-02-08T04:44:47;14.25;12.25;9.25
72467;PMS3003;60626;43.582;1.470;2023-02-08T04:47:14;8.50;8.00;7.00
72467;PMS3003;60626;43.582;1.470;2023-02-08T04:49:41;13.50;12.25;7.00
72467;PMS3003;60626;43.582;1.470;2023-02-08T04:52:07;13.25;12.00;8.25
72467;PMS3003;60626;43.582;1.470;2023-02-08T04:54:34;11.25;10.50;6.25
72467;PMS3003;60626;43.582;1.470;2023-02-08T04:57:01;13.75;12.25;8.50
72467;PMS3003;60626;43.582;1.470;2023-02-08T04:59:27;10.75;10.25;6.00
72467;PMS3003;60626;43.582;1.470;2023-02-08T05:01:54;13.75;13.75;10.50
72467;PMS3003;60626;43.582;1.470;2023-02-08T05:04:21;12.50;8.75;6.50
72467;PMS3003;60626;43.582;1.470;2023-02-08T05:06:48;17.50;13.25;9.75
72467;PMS3003;60626;43.582;1.470;2023-02-08T05:09:14;12.50;11.25;8.00
72467;PMS3003;60626;43.582;1.470;2023-02-08T05:11:41;21.00;12.75;8.25
72467;PMS3003;60626;43.582;1.470;2023-02-08T05:14:07;17.00;13.25;9.25
72467;PMS3003;60626;43.582;1.470;2023-02-08T05:16:34;14.00;10.25;7.75
72467;PMS3003;60626;43.582;1.470;2023-02-08T05:19:01;13.75;12.00;9.75
72467;PMS3003;60626;43.582;1.470;2023-02-08T05:21:27;12.00;10.75;7.50
72467;PMS3003;60626;43.582;1.470;2023-02-08T05:23:54;12.25;12.25;8.50
72467;PMS3003;60626;43.582;1.470;2023-02-08T05:26:21;14.00;12.50;9.00
72467;PMS3003;60626;43.582;1.470;2023-02-08T05:28:47;12.50;10.75;8.50
72467;PMS3003;60626;43.582;1.470;2023-02-08T05:31:16;14.75;12.00;9.75
72467;PMS3003;60626;43.582;1.470;2023-02-08T05:33:47;13.00;12.50;9.00
72467;PMS3003;60626;43.582;1.470;2023-02-08T05:36:14;13.75;11.50;8.50
72467;PMS3003;60626;43.582;1.470;2023-02-08T05:38:42;15.00;12.75;10.00
72467;PMS3003;60626;43.582;1.470;2023-02-08T05:41:09;14.75;11.50;8.25
72467;PMS3003;60626;43.582;1.470;2023-02-08T05:43:35;15.25;11.25;8.25
72467;PMS3003;60626;43.582;1.470;2023-02-08T05:46:02;15.00;13.25;8.00
72467;PMS3003;60626;43.582;1.470;2023-02-08T05:48:29;20.00;18.25;11.25
72467;PMS3003;60626;43.582;1.470;2023-02-08T05:50:57;22.00;19.75;14.75
72467;PMS3003;60626;43.582;1.470;2023-02-08T05:53:24;25.50;23.75;15.25
72467;PMS3003;60626;43.582;1.470;2023-02-08T05:55:52;28.50;23.00;14.50
72467;PMS3003;60626;43.582;1.470;2023-02-08T05:58:19;26.25;22.75;15.00
72467;PMS3003;60626;43.582;1.470;2023-02-08T06:00:45;25.50;22.25;14.00
72467;PMS3003;60626;43.582;1.470;2023-02-08T06:03:12;26.25;23.75;16.00
72467;PMS3003;60626;43.582;1.470;2023-02-08T06:05:39;24.00;21.00;13.75
72467;PMS3003;60626;43.582;1.470;2023-02-08T06:08:07;19.75;19.75;13.25
72467;PMS3003;60626;43.582;1.470;2023-02-08T06:10:34;19.25;18.00;11.00
72467;PMS3003;60626;43.582;1.470;2023-02-08T06:13:01;22.25;15.25;12.00
72467;PMS3003;60626;43.582;1.470;2023-02-08T06:15:29;17.50;16.25;11.00
72467;PMS3003;60626;43.582;1.470;2023-02-08T06:17:56;20.00;14.25;9.50
72467;PMS3003;60626;43.582;1.470;2023-02-08T06:20:22;16.50;14.75;11.25
72467;PMS3003;60626;43.582;1.470;2023-02-08T06:22:49;16.75;15.00;12.00
72467;PMS3003;60626;43.582;1.470;2023-02-08T06:25:16;12.25;12.25;10.00
72467;PMS3003;60626;43.582;1.470;2023-02-08T06:27:43;17.00;14.50;11.00
72467;PMS3003;60626;43.582;1.470;2023-02-08T06:30:09;15.00;13.50;10.75
72467;PMS3003;60626;43.582;1.470;2023-02-08T06:32:36;15.00;14.00;10.75
72467;PMS3003;60626;43.582;1.470;2023-02-08T06:35:03;18.75;16.50;11.50
72467;PMS3003;60626;43.582;1.470;2023-02-08T06:37:30;14.00;12.75;10.00
72467;PMS3003;60626;43.582;1.470;2023-02-08T06:39:56;14.00;11.00;7.00
72467;PMS3003;60626;43.582;1.470;2023-02-08T06:42:24;15.50;14.00;11.00
72467;PMS3003;60626;43.582;1.470;2023-02-08T06:44:51;15.25;13.25;10.00
72467;PMS3003;60626;43.582;1.470;2023-02-08T06:47:21;18.25;15.75;11.00
72467;PMS3003;60626;43.582;1.470;2023-02-08T06:49:48;19.00;18.50;13.00
72467;PMS3003;60626;43.582;1.470;2023-02-08T06:52:15;18.75;16.25;13.00
72467;PMS3003;60626;43.582;1.470;2023-02-08T06:54:42;16.25;16.25;11.00
72467;PMS3003;60626;43.582;1.470;2023-02-08T06:57:09;14.00;14.00;11.00
72467;PMS3003;60626;43.582;1.470;2023-02-08T06:59:38;15.75;15.50;12.50
72467;PMS3003;60626;43.582;1.470;2023-02-08T07:02:09;19.50;17.75;13.00
72467;PMS3003;60626;43.582;1.470;2023-02-08T07:04:38;20.00;19.50;13.00
72467;PMS3003;60626;43.582;1.470;2023-02-08T07:07:04;23.75;20.50;15.50
72467;PMS3003;60626;43.582;1.470;2023-02-08T07:09:32;18.50;18.50;14.50
72467;PMS3003;60626;43.582;1.470;2023-02-08T07:11:59;21.25;21.25;14.00
72467;PMS3003;60626;43.582;1.470;2023-02-08T07:14:34;15.25;13.75;11.00
72467;PMS3003;60626;43.582;1.470;2023-02-08T07:17:02;19.50;16.25;13.00
72467;PMS3003;60626;43.582;1.470;2023-02-08T07:19:29;23.75;20.50;12.00
72467;PMS3003;60626;43.582;1.470;2023-02-08T07:21:56;22.50;21.50;15.00
72467;PMS3003;60626;43.582;1.470;2023-02-08T07:24:24;23.00;20.75;15.25
72467;PMS3003;60626;43.582;1.470;2023-02-08T07:26:51;23.75;22.00;16.25
72467;PMS3003;60626;43.582;1.470;2023-02-08T07:29:17;25.75;22.50;15.00
72467;PMS3003;60626;43.582;1.470;2023-02-08T07:31:44;22.00;20.25;16.25
72467;PMS3003;60626;43.582;1.470;2023-02-08T07:34:11;21.00;20.25;14.00
72467;PMS3003;60626;43.582;1.470;2023-02-08T07:36:37;28.75;25.50;14.75
72467;PMS3003;60626;43.582;1.470;2023-02-08T07:39:04;23.50;22.00;14.75
72467;PMS3003;60626;43.582;1.470;2023-02-08T07:41:31;28.50;23.50;17.75
72467;PMS3003;60626;43.582;1.470;2023-02-08T07:43:58;23.00;20.75;14.50
72467;PMS3003;60626;43.582;1.470;2023-02-08T07:46:25;28.25;23.75;14.50
72467;PMS3003;60626;43.582;1.470;2023-02-08T07:48:52;25.75;22.50;16.75
72467;PMS3003;60626;43.582;1.470;2023-02-08T07:51:18;28.25;24.00;17.50
72467;PMS3003;60626;43.582;1.470;2023-02-08T07:53:45;24.50;23.25;15.75
72467;PMS3003;60626;43.582;1.470;2023-02-08T07:56:12;20.50;19.00;14.25
72467;PMS3003;60626;43.582;1.470;2023-02-08T07:58:39;21.00;19.25;13.00
72467;PMS3003;60626;43.582;1.470;2023-02-08T08:01:06;29.25;24.00;15.50
72467;PMS3003;60626;43.582;1.470;2023-02-08T08:03:47;26.00;20.25;14.00
72467;PMS3003;60626;43.582;1.470;2023-02-08T08:06:14;24.75;22.25;15.00
72467;PMS3003;60626;43.582;1.470;2023-02-08T08:08:40;31.75;22.50;16.50
72467;PMS3003;60626;43.582;1.470;2023-02-08T08:11:08;22.25;20.00;14.50
72467;PMS3003;60626;43.582;1.470;2023-02-08T08:13:35;21.00;19.00;13.50
72467;PMS3003;60626;43.582;1.470;2023-02-08T08:16:01;26.75;20.50;14.00
72467;PMS3003;60626;43.582;1.470;2023-02-08T08:18:28;30.25;27.00;20.00
72467;PMS3003;60626;43.582;1.470;2023-02-08T08:20:55;34.25;31.50;22.75
72467;PMS3003;60626;43.582;1.470;2023-02-08T08:23:21;29.00;26.75;19.50
72467;PMS3003;60626;43.582;1.470;2023-02-08T08:25:49;34.25;25.75;18.00
72467;PMS3003;60626;43.582;1.470;2023-02-08T08:28:15;28.75;24.50;15.75
72467;PMS3003;60626;43.582;1.470;2023-02-08T08:30:43;20.50;18.50;14.75
72467;PMS3003;60626;43.582;1.470;2023-02-08T08:33:11;27.50;22.50;15.25
72467;PMS3003;60626;43.582;1.470;2023-02-08T08:35:39;24.50;22.50;15.00
72467;PMS3003;60626;43.582;1.470;2023-02-08T08:38:07;26.50;23.75;16.00
72467;PMS3003;60626;43.582;1.470;2023-02-08T08:40:34;28.75;23.25;15.00
72467;PMS3003;60626;43.582;1.470;2023-02-08T08:43:01;23.00;19.75;15.25
72467;PMS3003;60626;43.582;1.470;2023-02-08T08:45:28;19.75;18.00;13.00
72467;PMS3003;60626;43.582;1.470;2023-02-08T08:47:54;10.75;9.00;4.00
72467;PMS3003;60626;43.582;1.470;2023-02-08T08:50:21;23.75;19.75;15.50
72467;PMS3003;60626;43.582;1.470;2023-02-08T08:52:48;27.00;23.00;15.75
72467;PMS3003;60626;43.582;1.470;2023-02-08T08:55:14;22.25;22.00;16.00
72467;PMS3003;60626;43.582;1.470;2023-02-08T08:57:41;36.00;30.50;20.50
72467;PMS3003;60626;43.582;1.470;2023-02-08T09:00:08;27.50;23.75;16.00
72467;PMS3003;60626;43.582;1.470;2023-02-08T09:02:35;23.00;20.00;13.75
72467;PMS3003;60626;43.582;1.470;2023-02-08T09:05:02;20.25;19.50;15.25
72467;PMS3003;60626;43.582;1.470;2023-02-08T09:07:30;24.25;24.25;15.50
72467;PMS3003;60626;43.582;1.470;2023-02-08T09:09:58;24.25;22.00;15.75
72467;PMS3003;60626;43.582;1.470;2023-02-08T09:12:24;23.75;21.75;15.75
72467;PMS3003;60626;43.582;1.470;2023-02-08T09:14:51;25.25;22.50;15.75
72467;PMS3003;60626;43.582;1.470;2023-02-08T09:17:18;27.75;23.75;16.00
72467;PMS3003;60626;43.582;1.470;2023-02-08T09:19:44;26.25;22.25;16.00
72467;PMS3003;60626;43.582;1.470;2023-02-08T09:22:12;19.00;19.00;15.00
72467;PMS3003;60626;43.582;1.470;2023-02-08T09:24:39;28.50;22.00;15.50
72467;PMS3003;60626;43.582;1.470;2023-02-08T09:27:06;24.00;22.25;14.25
72467;PMS3003;60626;43.582;1.470;2023-02-08T09:29:32;21.25;20.50;16.00
72467;PMS3003;60626;43.582;1.470;2023-02-08T09:31:59;30.00;24.50;17.00
72467;PMS3003;60626;43.582;1.470;2023-02-08T09:34:26;26.00;24.00;17.25
72467;PMS3003;60626;43.582;1.470;2023-02-08T09:36:53;25.50;24.00;17.75
72467;PMS3003;60626;43.582;1.470;2023-02-08T09:39:21;21.00;21.00;18.25
72467;PMS3003;60626;43.582;1.470;2023-02-08T09:42:00;29.00;27.25;18.25
72467;PMS3003;60626;43.582;1.470;2023-02-08T09:47:36;26.00;24.75;18.00
72467;PMS3003;60626;43.582;1.470;2023-02-08T09:52:41;27.00;25.50;19.75
72467;PMS3003;60626;43.582;1.470;2023-02-08T09:55:33;28.75;26.25;18.00
72467;PMS3003;60626;43.582;1.470;2023-02-08T09:58:27;25.00;23.75;16.25
72467;PMS3003;60626;43.582;1.470;2023-02-08T10:01:00;28.75;24.50;17.25
72467;PMS3003;60626;43.582;1.470;2023-02-08T10:03:37;26.75;23.50;15.50
72467;PMS3003;60626;43.582;1.470;2023-02-08T10:06:08;30.25;26.00;19.00
72467;PMS3003;60626;43.582;1.470;2023-02-08T10:08:40;27.00;27.00;18.75
72467;PMS3003;60626;43.582;1.470;2023-02-08T10:11:26;29.00;27.00;19.00
72467;PMS3003;60626;43.582;1.470;2023-02-08T10:25:26;25.75;23.25;16.00
72467;PMS3003;60626;43.582;1.470;2023-02-08T10:31:11;26.00;24.00;18.25
72467;PMS3003;60626;43.582;1.470;2023-02-08T10:36:47;27.25;25.50;18.25
72467;PMS3003;60626;43.582;1.470;2023-02-08T10:39:15;26.50;22.25;15.75
72467;PMS3003;60626;43.582;1.470;2023-02-08T10:41:44;27.25;24.50;17.75
72467;PMS3003;60626;43.582;1.470;2023-02-08T10:46:54;28.00;26.75;15.75
72467;PMS3003;60626;43.582;1.470;2023-02-08T10:52:26;31.75;28.75;19.50
72467;PMS3003;60626;43.582;1.470;2023-02-08T10:54:53;27.00;27.00;20.00
72467;PMS3003;60626;43.582;1.470;2023-02-08T10:57:23;26.75;25.25;17.25
72467;PMS3003;60626;43.582;1.470;2023-02-08T10:59:55;27.25;24.00;16.00
72467;PMS3003;60626;43.582;1.470;2023-02-08T11:02:30;19.00;19.00;14.00
72467;PMS3003;60626;43.582;1.470;2023-02-08T11:07:37;23.25;21.75;15.75
72467;PMS3003;60626;43.582;1.470;2023-02-08T11:12:53;23.75;22.75;16.00
72467;PMS3003;60626;43.582;1.470;2023-02-08T11:18:28;22.25;20.50;15.00
72467;PMS3003;60626;43.582;1.470;2023-02-08T11:21:43;24.25;22.00;16.00
72467;PMS3003;60626;43.582;1.470;2023-02-08T11:24:04;20.50;19.00;14.00
72467;PMS3003;60626;43.582;1.470;2023-02-08T11:26:53;25.00;20.00;13.75
72467;PMS3003;60626;43.582;1.470;2023-02-08T11:29:22;18.75;18.50;14.00
72467;PMS3003;60626;43.582;1.470;2023-02-08T11:36:59;21.25;17.50;13.00
72467;PMS3003;60626;43.582;1.470;2023-02-08T11:42:04;17.50;17.50;12.00
72467;PMS3003;60626;43.582;1.470;2023-02-08T11:44:33;17.25;14.50;11.00
72467;PMS3003;60626;43.582;1.470;2023-02-08T11:47:07;20.00;15.00;11.00
72467;PMS3003;60626;43.582;1.470;2023-02-08T11:49:40;17.25;15.75;13.00
72467;PMS3003;60626;43.582;1.470;2023-02-08T11:52:22;14.50;13.25;9.75
72467;PMS3003;60626;43.582;1.470;2023-02-08T11:54:51;12.75;12.75;10.00
72467;PMS3003;60626;43.582;1.470;2023-02-08T11:57:19;14.25;11.50;8.50
72467;PMS3003;60626;43.582;1.470;2023-02-08T11:59:49;12.00;9.75;7.00
72467;PMS3003;60626;43.582;1.470;2023-02-08T12:02:21;12.75;11.00;8.00
72467;PMS3003;60626;43.582;1.470;2023-02-08T12:04:51;9.00;8.00;6.75
72467;PMS3003;60626;43.582;1.470;2023-02-08T12:15:52;16.50;12.75;10.25
72467;PMS3003;60626;43.582;1.470;2023-02-08T12:21:23;11.25;8.75;7.00
72467;PMS3003;60626;43.582;1.470;2023-02-08T12:23:55;9.00;7.50;5.25
72467;PMS3003;60626;43.582;1.470;2023-02-08T12:41:20;21.00;14.25;10.50
72467;PMS3003;60626;43.582;1.470;2023-02-08T12:57:38;12.25;11.25;8.25
72467;PMS3003;60626;43.582;1.470;2023-02-08T13:05:34;9.75;7.00;5.75
72467;PMS3003;60626;43.582;1.470;2023-02-08T13:10:43;14.00;12.00;9.00
72467;PMS3003;60626;43.582;1.470;2023-02-08T13:13:19;11.75;10.00;7.25
72467;PMS3003;60626;43.582;1.470;2023-02-08T13:15:56;10.00;9.25;8.25
72467;PMS3003;60626;43.582;1.470;2023-02-08T13:18:28;13.00;8.25;6.00
72467;PMS3003;60626;43.582;1.470;2023-02-08T13:21:01;12.25;10.50;7.00
72467;PMS3003;60626;43.582;1.470;2023-02-08T13:23:40;7.00;7.00;6.50
72467;PMS3003;60626;43.582;1.470;2023-02-08T13:26:19;12.25;10.25;7.75
72467;PMS3003;60626;43.582;1.470;2023-02-08T13:28:55;14.75;11.25;7.75
72467;PMS3003;60626;43.582;1.470;2023-02-08T13:31:40;15.00;10.50;8.25
72467;PMS3003;60626;43.582;1.470;2023-02-08T13:34:14;9.75;9.75;8.00
72467;PMS3003;60626;43.582;1.470;2023-02-08T13:36:53;17.00;10.25;6.75
72467;PMS3003;60626;43.582;1.470;2023-02-08T13:40:26;11.25;10.25;7.75
72467;PMS3003;60626;43.582;1.470;2023-02-08T13:45:31;10.50;9.25;6.75
72467;PMS3003;60626;43.582;1.470;2023-02-08T13:48:09;10.25;10.25;7.00
72467;PMS3003;60626;43.582;1.470;2023-02-08T13:50:44;10.00;8.75;6.00
72467;PMS3003;60626;43.582;1.470;2023-02-08T13:56:06;11.25;10.50;7.00
72467;PMS3003;60626;43.582;1.470;2023-02-08T13:58:56;9.50;8.00;6.75
72467;PMS3003;60626;43.582;1.470;2023-02-08T14:01:25;11.25;10.00;7.25
72467;PMS3003;60626;43.582;1.470;2023-02-08T14:06:32;10.75;10.50;7.50
72467;PMS3003;60626;43.582;1.470;2023-02-08T14:09:18;15.50;12.50;9.00
72467;PMS3003;60626;43.582;1.470;2023-02-08T14:11:53;13.50;10.25;8.00
72467;PMS3003;60626;43.582;1.470;2023-02-08T14:14:27;8.25;7.00;5.50
72467;PMS3003;60626;43.582;1.470;2023-02-08T14:19:33;12.25;9.75;7.00
72467;PMS3003;60626;43.582;1.470;2023-02-08T14:22:03;10.75;8.00;6.50
72467;PMS3003;60626;43.582;1.470;2023-02-08T14:27:25;11.75;10.50;6.50
72467;PMS3003;60626;43.582;1.470;2023-02-08T14:30:28;10.50;10.50;9.50
72467;PMS3003;60626;43.582;1.470;2023-02-08T14:35:33;7.00;7.00;6.50
72467;PMS3003;60626;43.582;1.470;2023-02-08T14:45:53;8.75;8.75;7.00
72467;PMS3003;60626;43.582;1.470;2023-02-08T14:48:31;13.50;10.00;8.25
72467;PMS3003;60626;43.582;1.470;2023-02-08T14:58:40;9.00;7.75;6.00
72467;PMS3003;60626;43.582;1.470;2023-02-08T15:01:54;13.50;10.25;6.50
72467;PMS3003;60626;43.582;1.470;2023-02-08T15:04:09;10.75;8.50;6.75
72467;PMS3003;60626;43.582;1.470;2023-02-08T15:09:03;7.25;7.00;6.00
72467;PMS3003;60626;43.582;1.470;2023-02-08T15:11:32;10.00;7.50;6.00
72467;PMS3003;60626;43.582;1.470;2023-02-08T15:14:01;8.75;7.50;5.50
72467;PMS3003;60626;43.582;1.470;2023-02-08T15:16:39;12.00;11.00;7.00
72467;PMS3003;60626;43.582;1.470;2023-02-08T15:19:12;8.00;6.00;5.75
72467;PMS3003;60626;43.582;1.470;2023-02-08T15:21:47;8.25;7.75;5.50
72467;PMS3003;60626;43.582;1.470;2023-02-08T15:24:18;8.00;6.25;5.00
72467;PMS3003;60626;43.582;1.470;2023-02-08T15:26:55;9.75;8.50;6.25
72467;PMS3003;60626;43.582;1.470;2023-02-08T15:29:27;9.50;7.25;5.00
72467;PMS3003;60626;43.582;1.470;2023-02-08T15:32:13;7.00;7.00;6.00
72467;PMS3003;60626;43.582;1.470;2023-02-08T15:34:43;9.00;7.50;6.50
72467;PMS3003;60626;43.582;1.470;2023-02-08T15:37:15;10.50;10.00;6.00
72467;PMS3003;60626;43.582;1.470;2023-02-08T15:39:43;6.75;6.75;6.50
72467;PMS3003;60626;43.582;1.470;2023-02-08T15:42:18;7.00;7.00;5.75
72467;PMS3003;60626;43.582;1.470;2023-02-08T15:44:47;7.00;5.50;5.00
72467;PMS3003;60626;43.582;1.470;2023-02-08T15:47:16;12.00;10.00;7.75
72467;PMS3003;60626;43.582;1.470;2023-02-08T15:49:45;11.00;8.75;6.25
72467;PMS3003;60626;43.582;1.470;2023-02-08T15:52:16;9.50;8.00;6.00
72467;PMS3003;60626;43.582;1.470;2023-02-08T15:54:46;8.50;7.00;5.00
72467;PMS3003;60626;43.582;1.470;2023-02-08T16:00:03;11.50;8.00;5.50
72467;PMS3003;60626;43.582;1.470;2023-02-08T16:02:37;9.00;4.25;3.75
72467;PMS3003;60626;43.582;1.470;2023-02-08T16:05:09;8.00;6.25;4.25
72467;PMS3003;60626;43.582;1.470;2023-02-08T16:07:45;9.00;7.75;6.00
72467;PMS3003;60626;43.582;1.470;2023-02-08T16:10:55;6.75;5.75;4.00
72467;PMS3003;60626;43.582;1.470;2023-02-08T16:13:19;6.50;5.00;4.00
72467;PMS3003;60626;43.582;1.470;2023-02-08T16:15:52;7.75;6.00;5.00
72467;PMS3003;60626;43.582;1.470;2023-02-08T16:18:40;11.00;7.50;6.00
72467;PMS3003;60626;43.582;1.470;2023-02-08T16:21:20;3.25;3.25;2.25
72467;PMS3003;60626;43.582;1.470;2023-02-08T16:23:53;12.00;6.25;4.00
72467;PMS3003;60626;43.582;1.470;2023-02-08T16:29:23;8.50;7.75;5.75
72467;PMS3003;60626;43.582;1.470;2023-02-08T16:34:57;9.50;7.25;5.25
72467;PMS3003;60626;43.582;1.470;2023-02-08T16:37:29;10.75;6.50;4.25
72467;PMS3003;60626;43.582;1.470;2023-02-08T16:40:01;11.25;6.75;5.00
72467;PMS3003;60626;43.582;1.470;2023-02-08T16:42:48;2.00;2.00;1.00
72467;PMS3003;60626;43.582;1.470;2023-02-08T16:45:18;6.00;6.00;6.00
72467;PMS3003;60626;43.582;1.470;2023-02-08T16:50:24;8.25;6.75;5.00
72467;PMS3003;60626;43.582;1.470;2023-02-08T16:52:53;9.75;8.00;6.00
72467;PMS3003;60626;43.582;1.470;2023-02-08T16:55:22;8.00;6.00;5.00
72467;PMS3003;60626;43.582;1.470;2023-02-08T16:57:52;12.00;8.75;6.25
72467;PMS3003;60626;43.582;1.470;2023-02-08T17:00:22;7.75;7.25;5.50
72467;PMS3003;60626;43.582;1.470;2023-02-08T17:02:49;9.25;7.25;5.00
72467;PMS3003;60626;43.582;1.470;2023-02-08T17:05:18;7.50;6.50;5.00
72467;PMS3003;60626;43.582;1.470;2023-02-08T17:07:45;8.25;8.25;7.00
72467;PMS3003;60626;43.582;1.470;2023-02-08T17:10:15;7.25;6.00;4.00
72467;PMS3003;60626;43.582;1.470;2023-02-08T17:12:47;4.75;4.75;3.75
72467;PMS3003;60626;43.582;1.470;2023-02-08T17:15:13;7.75;6.00;5.00
72467;PMS3003;60626;43.582;1.470;2023-02-08T17:17:40;11.75;7.75;5.00
72467;PMS3003;60626;43.582;1.470;2023-02-08T17:20:26;7.50;6.50;4.00
72467;PMS3003;60626;43.582;1.470;2023-02-08T17:22:56;7.75;6.50;5.00
72467;PMS3003;60626;43.582;1.470;2023-02-08T17:25:24;5.50;5.50;4.50
72467;PMS3003;60626;43.582;1.470;2023-02-08T17:27:54;12.00;11.00;8.00